sensor_id;sensor_type;location;lat;lon;timestamp;P1;durP1;ratioP1;P2;durP2;ratioP2
19599;SDS011;9947;57.722;12.012;2023-04-06T00:00:16;6.50;;;4.10;;
19599;SDS011;9947;57.722;12.012;2023-04-06T00:02:46;4.97;;;4.17;;
19599;SDS011;9947;57.722;12.012;2023-04-06T00:05:18;5.30;;;3.50;;
19599;SDS011;9947;57.722;12.012;2023-04-06T00:07:52;6.70;;;3.97;;
19599;SDS011;9947;57.722;12.012;2023-04-06T00:10:29;4.23;;;3.63;;
19599;SDS011;9947;57.722;12.012;2023-04-06T00:13:05;4.77;;;4.00;;
19599;SDS011;9947;57.722;12.012;2023-04-06T00:15:41;5.23;;;3.90;;
19599;SDS011;9947;57.722;12.012;2023-04-06T00:18:30;6.20;;;4.13;;
19599;SDS011;9947;57.722;12.012;2023-04-06T00:20:58;5.03;;;3.70;;
19599;SDS011;9947;57.722;12.012;2023-04-06T00:23:31;4.73;;;3.83;;
19599;SDS011;9947;57.722;12.012;2023-04-06T00:25:58;4.57;;;3.87;;
19599;SDS011;9947;57.722;12.012;2023-04-06T00:28:37;4.73;;;3.70;;
19599;SDS011;9947;57.722;12.012;2023-04-06T00:31:09;4.50;;;3.80;;
19599;SDS011;9947;57.722;12.012;2023-04-06T00:33:50;6.57;;;3.93;;
19599;SDS011;9947;57.722;12.012;2023-04-06T00:36:18;6.47;;;3.90;;
19599;SDS011;9947;57.722;12.012;2023-04-06T00:44:17;6.40;;;4.25;;
19599;SDS011;9947;57.722;12.012;2023-04-06T00:49:12;5.53;;;4.50;;
19599;SDS011;9947;57.722;12.012;2023-04-06T00:54:10;6.78;;;4.07;;
19599;SDS011;9947;57.722;12.012;2023-04-06T00:56:37;5.70;;;4.07;;
19599;SDS011;9947;57.722;12.012;2023-04-06T00:59:15;5.97;;;4.60;;
19599;SDS011;9947;57.722;12.012;2023-04-06T01:01:46;3.87;;;2.43;;
19599;SDS011;9947;57.722;12.012;2023-04-06T01:04:22;8.40;;;3.20;;
19599;SDS011;9947;57.722;12.012;2023-04-06T01:09:17;6.78;;;5.28;;
19599;SDS011;9947;57.722;12.012;2023-04-06T01:14:10;5.93;;;4.05;;
19599;SDS011;9947;57.722;12.012;2023-04-06T01:16:40;7.10;;;4.43;;
19599;SDS011;9947;57.722;12.012;2023-04-06T01:19:29;6.93;;;4.10;;
19599;SDS011;9947;57.722;12.012;2023-04-06T01:22:00;6.77;;;4.33;;
19599;SDS011;9947;57.722;12.012;2023-04-06T01:24:43;6.67;;;4.63;;
19599;SDS011;9947;57.722;12.012;2023-04-06T01:27:18;7.83;;;4.70;;
19599;SDS011;9947;57.722;12.012;2023-04-06T01:29:54;5.57;;;4.10;;
19599;SDS011;9947;57.722;12.012;2023-04-06T01:32:23;5.00;;;3.87;;
19599;SDS011;9947;57.722;12.012;2023-04-06T01:34:57;8.17;;;4.10;;
19599;SDS011;9947;57.722;12.012;2023-04-06T01:37:28;7.70;;;4.90;;
19599;SDS011;9947;57.722;12.012;2023-04-06T01:40:03;8.30;;;4.70;;
19599;SDS011;9947;57.722;12.012;2023-04-06T01:42:50;5.23;;;4.30;;
19599;SDS011;9947;57.722;12.012;2023-04-06T01:48:02;6.63;;;4.50;;
19599;SDS011;9947;57.722;12.012;2023-04-06T01:50:41;5.17;;;4.23;;
19599;SDS011;9947;57.722;12.012;2023-04-06T01:53:08;5.30;;;4.00;;
19599;SDS011;9947;57.722;12.012;2023-04-06T01:55:41;5.90;;;4.10;;
19599;SDS011;9947;57.722;12.012;2023-04-06T01:58:08;7.47;;;4.67;;
19599;SDS011;9947;57.722;12.012;2023-04-06T02:00:45;7.47;;;4.70;;
19599;SDS011;9947;57.722;12.012;2023-04-06T02:03:12;4.97;;;3.73;;
19599;SDS011;9947;57.722;12.012;2023-04-06T02:05:56;4.33;;;3.93;;
19599;SDS011;9947;57.722;12.012;2023-04-06T02:08:26;5.27;;;4.10;;
19599;SDS011;9947;57.722;12.012;2023-04-06T02:13:23;4.23;;;3.83;;
19599;SDS011;9947;57.722;12.012;2023-04-06T02:18:23;6.77;;;3.90;;
19599;SDS011;9947;57.722;12.012;2023-04-06T02:21:05;4.93;;;3.80;;
19599;SDS011;9947;57.722;12.012;2023-04-06T02:23:35;5.43;;;4.00;;
19599;SDS011;9947;57.722;12.012;2023-04-06T02:26:05;5.47;;;3.80;;
19599;SDS011;9947;57.722;12.012;2023-04-06T02:28:49;3.80;;;3.40;;
19599;SDS011;9947;57.722;12.012;2023-04-06T02:31:20;6.40;;;3.77;;
19599;SDS011;9947;57.722;12.012;2023-04-06T02:34:03;4.10;;;3.67;;
19599;SDS011;9947;57.722;12.012;2023-04-06T02:36:40;5.90;;;3.80;;
19599;SDS011;9947;57.722;12.012;2023-04-06T02:39:14;5.03;;;3.93;;
19599;SDS011;9947;57.722;12.012;2023-04-06T02:41:47;4.67;;;3.80;;
19599;SDS011;9947;57.722;12.012;2023-04-06T02:44:24;4.77;;;3.93;;
19599;SDS011;9947;57.722;12.012;2023-04-06T02:47:00;3.93;;;3.50;;
19599;SDS011;9947;57.722;12.012;2023-04-06T02:49:42;4.20;;;3.50;;
19599;SDS011;9947;57.722;12.012;2023-04-06T02:52:20;4.87;;;3.53;;
19599;SDS011;9947;57.722;12.012;2023-04-06T02:57:14;3.55;;;3.20;;
19599;SDS011;9947;57.722;12.012;2023-04-06T03:03:24;5.57;;;4.00;;
19599;SDS011;9947;57.722;12.012;2023-04-06T03:06:09;6.47;;;4.10;;
19599;SDS011;9947;57.722;12.012;2023-04-06T03:08:37;3.97;;;3.57;;
19599;SDS011;9947;57.722;12.012;2023-04-06T03:11:06;4.00;;;3.43;;
19599;SDS011;9947;57.722;12.012;2023-04-06T03:13:39;3.77;;;3.40;;
19599;SDS011;9947;57.722;12.012;2023-04-06T03:16:06;5.33;;;3.87;;
19599;SDS011;9947;57.722;12.012;2023-04-06T03:18:37;4.33;;;3.93;;
19599;SDS011;9947;57.722;12.012;2023-04-06T03:21:04;4.10;;;3.70;;
19599;SDS011;9947;57.722;12.012;2023-04-06T03:23:44;5.23;;;4.00;;
19599;SDS011;9947;57.722;12.012;2023-04-06T03:26:12;6.53;;;3.80;;
19599;SDS011;9947;57.722;12.012;2023-04-06T03:28:40;7.83;;;4.60;;
19599;SDS011;9947;57.722;12.012;2023-04-06T03:31:14;7.20;;;4.13;;
19599;SDS011;9947;57.722;12.012;2023-04-06T03:33:56;7.23;;;4.47;;
19599;SDS011;9947;57.722;12.012;2023-04-06T03:36:24;5.90;;;3.93;;
19599;SDS011;9947;57.722;12.012;2023-04-06T03:39:00;4.10;;;3.50;;
19599;SDS011;9947;57.722;12.012;2023-04-06T03:41:27;4.13;;;3.63;;
19599;SDS011;9947;57.722;12.012;2023-04-06T03:44:04;4.30;;;3.90;;
19599;SDS011;9947;57.722;12.012;2023-04-06T03:46:34;5.87;;;4.30;;
19599;SDS011;9947;57.722;12.012;2023-04-06T03:49:02;4.30;;;3.70;;
19599;SDS011;9947;57.722;12.012;2023-04-06T03:51:30;5.03;;;3.90;;
19599;SDS011;9947;57.722;12.012;2023-04-06T03:54:01;5.87;;;4.40;;
19599;SDS011;9947;57.722;12.012;2023-04-06T03:56:34;7.07;;;4.47;;
19599;SDS011;9947;57.722;12.012;2023-04-06T03:59:06;4.77;;;4.13;;
19599;SDS011;9947;57.722;12.012;2023-04-06T04:01:36;6.60;;;4.10;;
19599;SDS011;9947;57.722;12.012;2023-04-06T04:04:06;6.67;;;4.50;;
19599;SDS011;9947;57.722;12.012;2023-04-06T04:06:53;4.13;;;3.70;;
19599;SDS011;9947;57.722;12.012;2023-04-06T04:09:22;4.23;;;3.57;;
19599;SDS011;9947;57.722;12.012;2023-04-06T04:11:56;4.77;;;4.17;;
19599;SDS011;9947;57.722;12.012;2023-04-06T04:14:25;4.90;;;4.20;;
19599;SDS011;9947;57.722;12.012;2023-04-06T04:16:54;5.73;;;4.67;;
19599;SDS011;9947;57.722;12.012;2023-04-06T04:19:28;7.37;;;4.70;;
19599;SDS011;9947;57.722;12.012;2023-04-06T04:22:03;4.67;;;4.27;;
19599;SDS011;9947;57.722;12.012;2023-04-06T04:24:38;6.73;;;4.53;;
19599;SDS011;9947;57.722;12.012;2023-04-06T04:27:06;5.50;;;4.27;;
19599;SDS011;9947;57.722;12.012;2023-04-06T04:29:35;8.07;;;4.30;;
19599;SDS011;9947;57.722;12.012;2023-04-06T04:32:03;5.33;;;4.50;;
19599;SDS011;9947;57.722;12.012;2023-04-06T04:34:37;6.83;;;4.53;;
19599;SDS011;9947;57.722;12.012;2023-04-06T04:37:06;6.03;;;4.90;;
19599;SDS011;9947;57.722;12.012;2023-04-06T04:39:35;6.37;;;4.80;;
19599;SDS011;9947;57.722;12.012;2023-04-06T04:42:06;9.53;;;5.30;;
19599;SDS011;9947;57.722;12.012;2023-04-06T04:44:34;7.70;;;4.40;;
19599;SDS011;9947;57.722;12.012;2023-04-06T04:47:02;5.40;;;4.37;;
19599;SDS011;9947;57.722;12.012;2023-04-06T04:49:43;7.23;;;5.13;;
19599;SDS011;9947;57.722;12.012;2023-04-06T04:52:19;6.63;;;4.63;;
19599;SDS011;9947;57.722;12.012;2023-04-06T04:54:48;7.23;;;5.07;;
19599;SDS011;9947;57.722;12.012;2023-04-06T04:57:20;14.50;;;5.30;;
19599;SDS011;9947;57.722;12.012;2023-04-06T04:59:48;6.83;;;5.00;;
19599;SDS011;9947;57.722;12.012;2023-04-06T05:02:17;5.73;;;5.03;;
19599;SDS011;9947;57.722;12.012;2023-04-06T05:04:47;6.23;;;4.60;;
19599;SDS011;9947;57.722;12.012;2023-04-06T05:07:17;7.30;;;5.13;;
19599;SDS011;9947;57.722;12.012;2023-04-06T05:09:46;6.40;;;5.33;;
19599;SDS011;9947;57.722;12.012;2023-04-06T05:12:24;7.43;;;4.83;;
19599;SDS011;9947;57.722;12.012;2023-04-06T05:14:52;8.53;;;4.60;;
19599;SDS011;9947;57.722;12.012;2023-04-06T05:17:21;6.50;;;4.80;;
19599;SDS011;9947;57.722;12.012;2023-04-06T05:19:52;6.67;;;4.90;;
19599;SDS011;9947;57.722;12.012;2023-04-06T05:22:20;6.67;;;4.97;;
19599;SDS011;9947;57.722;12.012;2023-04-06T05:24:52;5.87;;;4.60;;
19599;SDS011;9947;57.722;12.012;2023-04-06T05:27:23;6.80;;;4.70;;
19599;SDS011;9947;57.722;12.012;2023-04-06T05:29:51;5.00;;;4.50;;
19599;SDS011;9947;57.722;12.012;2023-04-06T05:32:20;7.87;;;4.47;;
19599;SDS011;9947;57.722;12.012;2023-04-06T05:34:49;6.17;;;4.33;;
19599;SDS011;9947;57.722;12.012;2023-04-06T05:37:22;9.03;;;5.10;;
19599;SDS011;9947;57.722;12.012;2023-04-06T05:39:49;7.50;;;4.90;;
19599;SDS011;9947;57.722;12.012;2023-04-06T05:42:17;4.80;;;4.13;;
19599;SDS011;9947;57.722;12.012;2023-04-06T05:44:48;4.40;;;4.00;;
19599;SDS011;9947;57.722;12.012;2023-04-06T05:47:16;4.80;;;4.40;;
19599;SDS011;9947;57.722;12.012;2023-04-06T05:50:00;9.13;;;4.90;;
19599;SDS011;9947;57.722;12.012;2023-04-06T05:52:30;8.07;;;5.03;;
19599;SDS011;9947;57.722;12.012;2023-04-06T05:55:00;7.00;;;4.80;;
19599;SDS011;9947;57.722;12.012;2023-04-06T05:57:31;6.40;;;4.87;;
19599;SDS011;9947;57.722;12.012;2023-04-06T06:00:01;8.27;;;5.40;;
19599;SDS011;9947;57.722;12.012;2023-04-06T06:02:38;5.57;;;4.00;;
19599;SDS011;9947;57.722;12.012;2023-04-06T06:05:07;8.67;;;4.70;;
19599;SDS011;9947;57.722;12.012;2023-04-06T06:07:49;8.73;;;4.63;;
19599;SDS011;9947;57.722;12.012;2023-04-06T06:10:17;4.93;;;3.97;;
19599;SDS011;9947;57.722;12.012;2023-04-06T06:12:47;6.20;;;4.37;;
19599;SDS011;9947;57.722;12.012;2023-04-06T06:15:19;4.70;;;3.80;;
19599;SDS011;9947;57.722;12.012;2023-04-06T06:17:47;6.03;;;4.30;;
19599;SDS011;9947;57.722;12.012;2023-04-06T06:20:15;6.30;;;4.20;;
19599;SDS011;9947;57.722;12.012;2023-04-06T06:22:47;4.73;;;3.90;;
19599;SDS011;9947;57.722;12.012;2023-04-06T06:25:34;3.73;;;3.43;;
19599;SDS011;9947;57.722;12.012;2023-04-06T06:28:01;3.67;;;3.33;;
19599;SDS011;9947;57.722;12.012;2023-04-06T06:30:31;4.30;;;3.20;;
19599;SDS011;9947;57.722;12.012;2023-04-06T06:33:00;5.07;;;3.20;;
19599;SDS011;9947;57.722;12.012;2023-04-06T06:35:31;4.47;;;3.50;;
19599;SDS011;9947;57.722;12.012;2023-04-06T06:37:59;3.60;;;3.30;;
19599;SDS011;9947;57.722;12.012;2023-04-06T06:40:28;3.73;;;3.43;;
19599;SDS011;9947;57.722;12.012;2023-04-06T06:42:59;4.13;;;3.63;;
19599;SDS011;9947;57.722;12.012;2023-04-06T06:45:28;4.97;;;3.57;;
19599;SDS011;9947;57.722;12.012;2023-04-06T06:48:04;3.70;;;3.30;;
19599;SDS011;9947;57.722;12.012;2023-04-06T06:50:32;7.27;;;3.60;;
19599;SDS011;9947;57.722;12.012;2023-04-06T06:53:00;5.40;;;3.50;;
19599;SDS011;9947;57.722;12.012;2023-04-06T06:55:29;4.10;;;3.47;;
19599;SDS011;9947;57.722;12.012;2023-04-06T06:57:56;5.77;;;3.90;;
19599;SDS011;9947;57.722;12.012;2023-04-06T07:00:35;5.43;;;4.40;;
19599;SDS011;9947;57.722;12.012;2023-04-06T07:03:02;4.83;;;4.20;;
19599;SDS011;9947;57.722;12.012;2023-04-06T07:05:45;5.37;;;3.90;;
19599;SDS011;9947;57.722;12.012;2023-04-06T07:08:18;4.10;;;3.60;;
19599;SDS011;9947;57.722;12.012;2023-04-06T07:10:58;5.27;;;3.77;;
19599;SDS011;9947;57.722;12.012;2023-04-06T07:13:25;5.07;;;3.93;;
19599;SDS011;9947;57.722;12.012;2023-04-06T07:15:57;7.40;;;4.10;;
19599;SDS011;9947;57.722;12.012;2023-04-06T07:18:25;6.93;;;4.23;;
19599;SDS011;9947;57.722;12.012;2023-04-06T07:20:53;5.37;;;3.70;;
19599;SDS011;9947;57.722;12.012;2023-04-06T07:23:21;4.63;;;3.50;;
19599;SDS011;9947;57.722;12.012;2023-04-06T07:25:49;7.53;;;3.80;;
19599;SDS011;9947;57.722;12.012;2023-04-06T07:28:19;4.73;;;4.17;;
19599;SDS011;9947;57.722;12.012;2023-04-06T07:30:47;4.57;;;3.53;;
19599;SDS011;9947;57.722;12.012;2023-04-06T07:33:17;4.27;;;3.73;;
19599;SDS011;9947;57.722;12.012;2023-04-06T07:35:48;5.57;;;3.70;;
19599;SDS011;9947;57.722;12.012;2023-04-06T07:38:17;5.43;;;3.57;;
19599;SDS011;9947;57.722;12.012;2023-04-06T07:40:54;5.20;;;3.80;;
19599;SDS011;9947;57.722;12.012;2023-04-06T07:43:22;5.77;;;3.40;;
19599;SDS011;9947;57.722;12.012;2023-04-06T07:45:50;5.20;;;3.60;;
19599;SDS011;9947;57.722;12.012;2023-04-06T07:48:20;4.57;;;3.50;;
19599;SDS011;9947;57.722;12.012;2023-04-06T07:50:47;3.80;;;3.40;;
19599;SDS011;9947;57.722;12.012;2023-04-06T07:53:16;3.90;;;3.47;;
19599;SDS011;9947;57.722;12.012;2023-04-06T07:55:44;4.37;;;3.67;;
19599;SDS011;9947;57.722;12.012;2023-04-06T07:58:15;8.57;;;4.30;;
19599;SDS011;9947;57.722;12.012;2023-04-06T08:00:43;7.37;;;4.00;;
19599;SDS011;9947;57.722;12.012;2023-04-06T08:03:10;8.73;;;3.93;;
19599;SDS011;9947;57.722;12.012;2023-04-06T08:05:39;7.53;;;4.13;;
19599;SDS011;9947;57.722;12.012;2023-04-06T08:08:15;15.67;;;4.83;;
19599;SDS011;9947;57.722;12.012;2023-04-06T08:10:44;7.80;;;4.47;;
19599;SDS011;9947;57.722;12.012;2023-04-06T08:13:11;8.67;;;4.23;;
19599;SDS011;9947;57.722;12.012;2023-04-06T08:15:39;11.37;;;4.67;;
19599;SDS011;9947;57.722;12.012;2023-04-06T08:18:06;9.03;;;4.03;;
19599;SDS011;9947;57.722;12.012;2023-04-06T08:20:36;9.20;;;3.83;;
19599;SDS011;9947;57.722;12.012;2023-04-06T08:23:04;3.57;;;3.27;;
19599;SDS011;9947;57.722;12.012;2023-04-06T08:25:35;5.27;;;3.67;;
19599;SDS011;9947;57.722;12.012;2023-04-06T08:28:06;5.43;;;3.77;;
19599;SDS011;9947;57.722;12.012;2023-04-06T08:30:35;4.53;;;3.50;;
19599;SDS011;9947;57.722;12.012;2023-04-06T08:33:02;4.00;;;3.60;;
19599;SDS011;9947;57.722;12.012;2023-04-06T08:35:31;6.77;;;4.80;;
19599;SDS011;9947;57.722;12.012;2023-04-06T08:37:58;6.43;;;3.87;;
19599;SDS011;9947;57.722;12.012;2023-04-06T08:40:29;3.60;;;3.30;;
19599;SDS011;9947;57.722;12.012;2023-04-06T08:42:59;4.63;;;3.20;;
19599;SDS011;9947;57.722;12.012;2023-04-06T08:45:33;4.67;;;3.47;;
19599;SDS011;9947;57.722;12.012;2023-04-06T08:48:11;5.90;;;3.67;;
19599;SDS011;9947;57.722;12.012;2023-04-06T08:50:40;6.30;;;3.37;;
19599;SDS011;9947;57.722;12.012;2023-04-06T08:53:13;4.90;;;3.73;;
19599;SDS011;9947;57.722;12.012;2023-04-06T08:55:45;3.43;;;3.13;;
19599;SDS011;9947;57.722;12.012;2023-04-06T08:58:13;3.67;;;3.33;;
19599;SDS011;9947;57.722;12.012;2023-04-06T09:00:41;3.77;;;3.20;;
19599;SDS011;9947;57.722;12.012;2023-04-06T09:03:10;4.93;;;3.07;;
19599;SDS011;9947;57.722;12.012;2023-04-06T09:05:42;4.17;;;3.40;;
19599;SDS011;9947;57.722;12.012;2023-04-06T09:08:11;3.73;;;3.40;;
19599;SDS011;9947;57.722;12.012;2023-04-06T09:10:40;4.60;;;3.57;;
19599;SDS011;9947;57.722;12.012;2023-04-06T09:13:10;4.70;;;3.10;;
19599;SDS011;9947;57.722;12.012;2023-04-06T09:15:39;4.53;;;3.43;;
19599;SDS011;9947;57.722;12.012;2023-04-06T09:18:06;4.83;;;3.23;;
19599;SDS011;9947;57.722;12.012;2023-04-06T09:20:41;5.10;;;3.20;;
19599;SDS011;9947;57.722;12.012;2023-04-06T09:23:19;4.10;;;3.10;;
19599;SDS011;9947;57.722;12.012;2023-04-06T09:25:48;3.97;;;3.20;;
19599;SDS011;9947;57.722;12.012;2023-04-06T09:28:20;4.60;;;3.30;;
19599;SDS011;9947;57.722;12.012;2023-04-06T09:30:47;3.60;;;3.00;;
19599;SDS011;9947;57.722;12.012;2023-04-06T09:33:23;3.67;;;3.00;;
19599;SDS011;9947;57.722;12.012;2023-04-06T09:35:51;4.53;;;3.17;;
19599;SDS011;9947;57.722;12.012;2023-04-06T09:38:33;6.83;;;3.83;;
19599;SDS011;9947;57.722;12.012;2023-04-06T09:41:00;5.13;;;4.50;;
19599;SDS011;9947;57.722;12.012;2023-04-06T09:43:40;5.53;;;3.80;;
19599;SDS011;9947;57.722;12.012;2023-04-06T09:46:08;6.60;;;3.67;;
19599;SDS011;9947;57.722;12.012;2023-04-06T09:48:36;5.60;;;3.87;;
19599;SDS011;9947;57.722;12.012;2023-04-06T09:51:05;5.90;;;4.00;;
19599;SDS011;9947;57.722;12.012;2023-04-06T09:53:37;6.47;;;4.17;;
19599;SDS011;9947;57.722;12.012;2023-04-06T09:56:09;3.93;;;3.53;;
19599;SDS011;9947;57.722;12.012;2023-04-06T09:58:45;7.03;;;3.90;;
19599;SDS011;9947;57.722;12.012;2023-04-06T10:01:22;6.33;;;3.70;;
19599;SDS011;9947;57.722;12.012;2023-04-06T10:03:56;4.50;;;3.80;;
19599;SDS011;9947;57.722;12.012;2023-04-06T10:06:35;8.13;;;4.00;;
19599;SDS011;9947;57.722;12.012;2023-04-06T10:09:06;5.83;;;3.93;;
19599;SDS011;9947;57.722;12.012;2023-04-06T10:11:41;5.37;;;3.87;;
19599;SDS011;9947;57.722;12.012;2023-04-06T10:14:11;7.47;;;4.20;;
19599;SDS011;9947;57.722;12.012;2023-04-06T10:16:43;5.77;;;4.30;;
19599;SDS011;9947;57.722;12.012;2023-04-06T10:19:12;7.00;;;4.67;;
19599;SDS011;9947;57.722;12.012;2023-04-06T10:21:43;7.03;;;4.53;;
19599;SDS011;9947;57.722;12.012;2023-04-06T10:24:17;6.40;;;5.03;;
19599;SDS011;9947;57.722;12.012;2023-04-06T10:26:57;8.03;;;5.07;;
19599;SDS011;9947;57.722;12.012;2023-04-06T10:29:45;9.47;;;5.33;;
19599;SDS011;9947;57.722;12.012;2023-04-06T10:32:17;8.70;;;6.30;;
19599;SDS011;9947;57.722;12.012;2023-04-06T10:34:45;9.00;;;6.40;;
19599;SDS011;9947;57.722;12.012;2023-04-06T10:37:13;9.27;;;6.30;;
19599;SDS011;9947;57.722;12.012;2023-04-06T10:39:51;9.13;;;6.60;;
19599;SDS011;9947;57.722;12.012;2023-04-06T10:42:23;12.43;;;7.20;;
19599;SDS011;9947;57.722;12.012;2023-04-06T10:44:53;9.53;;;7.00;;
19599;SDS011;9947;57.722;12.012;2023-04-06T10:47:21;11.10;;;7.07;;
19599;SDS011;9947;57.722;12.012;2023-04-06T10:49:50;11.77;;;7.60;;
19599;SDS011;9947;57.722;12.012;2023-04-06T10:52:19;11.83;;;7.23;;
19599;SDS011;9947;57.722;12.012;2023-04-06T10:54:46;12.40;;;7.23;;
19599;SDS011;9947;57.722;12.012;2023-04-06T10:57:28;9.60;;;7.30;;
19599;SDS011;9947;57.722;12.012;2023-04-06T10:59:59;13.07;;;8.10;;
19599;SDS011;9947;57.722;12.012;2023-04-06T11:02:27;12.60;;;7.60;;
19599;SDS011;9947;57.722;12.012;2023-04-06T11:04:55;10.97;;;7.33;;
19599;SDS011;9947;57.722;12.012;2023-04-06T11:07:24;12.57;;;7.53;;
19599;SDS011;9947;57.722;12.012;2023-04-06T11:09:52;12.40;;;7.83;;
19599;SDS011;9947;57.722;12.012;2023-04-06T11:12:31;11.77;;;7.83;;
19599;SDS011;9947;57.722;12.012;2023-04-06T11:15:03;14.30;;;8.10;;
19599;SDS011;9947;57.722;12.012;2023-04-06T11:17:36;15.17;;;7.87;;
19599;SDS011;9947;57.722;12.012;2023-04-06T11:20:11;11.97;;;7.53;;
19599;SDS011;9947;57.722;12.012;2023-04-06T11:22:49;12.43;;;6.87;;
19599;SDS011;9947;57.722;12.012;2023-04-06T11:25:17;12.33;;;7.10;;
19599;SDS011;9947;57.722;12.012;2023-04-06T11:27:49;8.67;;;5.93;;
19599;SDS011;9947;57.722;12.012;2023-04-06T11:30:25;7.63;;;5.33;;
19599;SDS011;9947;57.722;12.012;2023-04-06T11:33:01;9.70;;;5.57;;
19599;SDS011;9947;57.722;12.012;2023-04-06T11:35:30;11.27;;;5.23;;
19599;SDS011;9947;57.722;12.012;2023-04-06T11:37:59;12.13;;;5.70;;
19599;SDS011;9947;57.722;12.012;2023-04-06T11:40:30;10.53;;;5.83;;
19599;SDS011;9947;57.722;12.012;2023-04-06T11:42:58;9.10;;;5.33;;
19599;SDS011;9947;57.722;12.012;2023-04-06T11:45:41;10.40;;;5.07;;
19599;SDS011;9947;57.722;12.012;2023-04-06T11:48:17;8.33;;;4.40;;
19599;SDS011;9947;57.722;12.012;2023-04-06T11:50:55;7.60;;;3.90;;
19599;SDS011;9947;57.722;12.012;2023-04-06T11:53:32;8.53;;;4.33;;
19599;SDS011;9947;57.722;12.012;2023-04-06T11:56:24;8.37;;;3.97;;
19599;SDS011;9947;57.722;12.012;2023-04-06T11:58:56;7.60;;;3.90;;
19599;SDS011;9947;57.722;12.012;2023-04-06T12:01:26;5.93;;;3.77;;
19599;SDS011;9947;57.722;12.012;2023-04-06T12:03:54;6.70;;;4.10;;
19599;SDS011;9947;57.722;12.012;2023-04-06T12:06:30;5.33;;;3.50;;
19599;SDS011;9947;57.722;12.012;2023-04-06T12:09:06;7.10;;;3.70;;
19599;SDS011;9947;57.722;12.012;2023-04-06T12:11:34;6.07;;;3.73;;
19599;SDS011;9947;57.722;12.012;2023-04-06T12:14:06;5.87;;;4.40;;
19599;SDS011;9947;57.722;12.012;2023-04-06T12:16:41;5.47;;;3.70;;
19599;SDS011;9947;57.722;12.012;2023-04-06T12:19:10;8.97;;;3.90;;
19599;SDS011;9947;57.722;12.012;2023-04-06T12:21:45;8.80;;;3.47;;
19599;SDS011;9947;57.722;12.012;2023-04-06T12:24:15;5.37;;;3.30;;
19599;SDS011;9947;57.722;12.012;2023-04-06T12:26:43;4.93;;;3.10;;
19599;SDS011;9947;57.722;12.012;2023-04-06T12:29:19;4.83;;;3.17;;
19599;SDS011;9947;57.722;12.012;2023-04-06T12:31:48;4.83;;;3.23;;
19599;SDS011;9947;57.722;12.012;2023-04-06T12:34:17;4.27;;;2.70;;
19599;SDS011;9947;57.722;12.012;2023-04-06T12:36:45;3.90;;;3.17;;
19599;SDS011;9947;57.722;12.012;2023-04-06T12:39:12;6.13;;;3.40;;
19599;SDS011;9947;57.722;12.012;2023-04-06T12:41:41;4.47;;;3.10;;
19599;SDS011;9947;57.722;12.012;2023-04-06T12:44:11;5.77;;;3.37;;
19599;SDS011;9947;57.722;12.012;2023-04-06T12:46:44;7.30;;;3.00;;
19599;SDS011;9947;57.722;12.012;2023-04-06T12:49:13;4.87;;;3.27;;
19599;SDS011;9947;57.722;12.012;2023-04-06T12:51:48;7.33;;;3.30;;
19599;SDS011;9947;57.722;12.012;2023-04-06T12:54:15;7.73;;;3.67;;
19599;SDS011;9947;57.722;12.012;2023-04-06T12:56:42;3.77;;;2.70;;
19599;SDS011;9947;57.722;12.012;2023-04-06T12:59:12;3.20;;;2.83;;
19599;SDS011;9947;57.722;12.012;2023-04-06T13:01:41;4.30;;;2.80;;
19599;SDS011;9947;57.722;12.012;2023-04-06T13:04:10;4.60;;;3.00;;
19599;SDS011;9947;57.722;12.012;2023-04-06T13:06:40;4.80;;;2.80;;
19599;SDS011;9947;57.722;12.012;2023-04-06T13:09:07;4.53;;;2.77;;
19599;SDS011;9947;57.722;12.012;2023-04-06T13:11:35;10.33;;;2.67;;
19599;SDS011;9947;57.722;12.012;2023-04-06T13:14:02;5.77;;;2.77;;
19599;SDS011;9947;57.722;12.012;2023-04-06T13:16:29;3.97;;;2.77;;
19599;SDS011;9947;57.722;12.012;2023-04-06T13:18:58;4.80;;;2.27;;
19599;SDS011;9947;57.722;12.012;2023-04-06T13:21:33;3.00;;;2.70;;
19599;SDS011;9947;57.722;12.012;2023-04-06T13:24:05;7.73;;;3.13;;
19599;SDS011;9947;57.722;12.012;2023-04-06T13:26:34;8.53;;;2.80;;
19599;SDS011;9947;57.722;12.012;2023-04-06T13:29:01;4.30;;;2.57;;
19599;SDS011;9947;57.722;12.012;2023-04-06T13:31:30;5.00;;;2.33;;
19599;SDS011;9947;57.722;12.012;2023-04-06T13:33:58;6.33;;;2.60;;
19599;SDS011;9947;57.722;12.012;2023-04-06T13:36:27;9.73;;;2.63;;
19599;SDS011;9947;57.722;12.012;2023-04-06T13:38:56;7.90;;;2.70;;
19599;SDS011;9947;57.722;12.012;2023-04-06T13:41:26;9.43;;;2.53;;
19599;SDS011;9947;57.722;12.012;2023-04-06T13:43:53;3.33;;;2.40;;
19599;SDS011;9947;57.722;12.012;2023-04-06T13:46:23;6.77;;;2.80;;
19599;SDS011;9947;57.722;12.012;2023-04-06T13:48:50;4.30;;;2.63;;
19599;SDS011;9947;57.722;12.012;2023-04-06T13:51:17;4.73;;;2.30;;
19599;SDS011;9947;57.722;12.012;2023-04-06T13:53:45;2.23;;;1.87;;
19599;SDS011;9947;57.722;12.012;2023-04-06T13:56:17;4.03;;;2.20;;
19599;SDS011;9947;57.722;12.012;2023-04-06T13:58:49;2.53;;;2.30;;
19599;SDS011;9947;57.722;12.012;2023-04-06T14:01:22;4.50;;;2.40;;
19599;SDS011;9947;57.722;12.012;2023-04-06T14:03:52;6.43;;;2.43;;
19599;SDS011;9947;57.722;12.012;2023-04-06T14:06:27;3.43;;;2.00;;
19599;SDS011;9947;57.722;12.012;2023-04-06T14:09:00;3.67;;;2.10;;
19599;SDS011;9947;57.722;12.012;2023-04-06T14:11:31;2.57;;;2.27;;
19599;SDS011;9947;57.722;12.012;2023-04-06T14:14:00;3.70;;;2.40;;
19599;SDS011;9947;57.722;12.012;2023-04-06T14:16:28;8.70;;;2.33;;
19599;SDS011;9947;57.722;12.012;2023-04-06T14:19:14;7.17;;;2.90;;
19599;SDS011;9947;57.722;12.012;2023-04-06T14:21:47;4.77;;;2.57;;
19599;SDS011;9947;57.722;12.012;2023-04-06T14:24:22;8.33;;;2.60;;
19599;SDS011;9947;57.722;12.012;2023-04-06T14:26:58;6.97;;;2.70;;
19599;SDS011;9947;57.722;12.012;2023-04-06T14:29:27;9.10;;;2.90;;
19599;SDS011;9947;57.722;12.012;2023-04-06T14:31:54;5.30;;;3.13;;
19599;SDS011;9947;57.722;12.012;2023-04-06T14:34:26;8.13;;;3.00;;
19599;SDS011;9947;57.722;12.012;2023-04-06T14:36:55;7.17;;;3.20;;
19599;SDS011;9947;57.722;12.012;2023-04-06T14:39:24;3.00;;;2.50;;
19599;SDS011;9947;57.722;12.012;2023-04-06T14:41:52;9.90;;;3.37;;
19599;SDS011;9947;57.722;12.012;2023-04-06T14:44:22;8.70;;;2.90;;
19599;SDS011;9947;57.722;12.012;2023-04-06T14:46:50;13.07;;;3.40;;
19599;SDS011;9947;57.722;12.012;2023-04-06T14:49:19;5.10;;;3.10;;
19599;SDS011;9947;57.722;12.012;2023-04-06T14:51:46;6.80;;;2.80;;
19599;SDS011;9947;57.722;12.012;2023-04-06T14:54:19;4.87;;;2.83;;
19599;SDS011;9947;57.722;12.012;2023-04-06T14:56:49;5.63;;;3.00;;
19599;SDS011;9947;57.722;12.012;2023-04-06T14:59:18;6.23;;;3.10;;
19599;SDS011;9947;57.722;12.012;2023-04-06T15:01:54;9.13;;;3.40;;
19599;SDS011;9947;57.722;12.012;2023-04-06T15:04:24;6.53;;;3.10;;
19599;SDS011;9947;57.722;12.012;2023-04-06T15:06:52;6.13;;;2.97;;
19599;SDS011;9947;57.722;12.012;2023-04-06T15:09:20;6.70;;;3.10;;
19599;SDS011;9947;57.722;12.012;2023-04-06T15:11:47;5.53;;;3.77;;
19599;SDS011;9947;57.722;12.012;2023-04-06T15:14:14;8.13;;;3.53;;
19599;SDS011;9947;57.722;12.012;2023-04-06T15:16:41;5.00;;;2.93;;
19599;SDS011;9947;57.722;12.012;2023-04-06T15:19:11;5.53;;;2.93;;
19599;SDS011;9947;57.722;12.012;2023-04-06T15:21:43;8.03;;;3.40;;
19599;SDS011;9947;57.722;12.012;2023-04-06T15:24:10;12.83;;;3.77;;
19599;SDS011;9947;57.722;12.012;2023-04-06T15:26:39;6.47;;;2.93;;
19599;SDS011;9947;57.722;12.012;2023-04-06T15:29:10;5.47;;;2.77;;
19599;SDS011;9947;57.722;12.012;2023-04-06T15:31:38;7.30;;;2.97;;
19599;SDS011;9947;57.722;12.012;2023-04-06T15:34:05;8.87;;;3.10;;
19599;SDS011;9947;57.722;12.012;2023-04-06T15:36:35;5.50;;;3.33;;
19599;SDS011;9947;57.722;12.012;2023-04-06T15:39:04;4.03;;;2.87;;